Terminal Aerodrome Forecast
Issued by NWS

Home | Current Version | Previous Version | Text Only | Print | Product List | Glossary On
Versions: 1 2 3 4 5 6 7 8 9 10 11 12 13 14 15 16 17
000
FTUS43 KILX 260520
TAFCMI
TAF
KCMI 260520Z 2606/2706 14012KT P6SM VCSH SCT020 OVC050
     FM260900 16007KT 5SM BR OVC025
     FM261200 17005KT 4SM BR SCT006 OVC015
     FM261800 21012KT 6SM BR VCSH OVC015
     FM270000 22007KT P6SM OVC025=

USA.gov is the U.S. government's official web portal to all federal, state and local government web resources and services.